Time;durP1;ratioP1;P1;durP2;ratioP2;P2;SDS_P1;SDS_P2;PMS_P1;PMS_P2;Temp;Humidity;BMP_temperature;BMP_pressure;BME280_temperature;BME280_humidity;BME280_pressure;Samples;Min_cycle;Max_cycle;Signal;HPM_P1;HPM_P2
2021/07/14 00:01:51;;;;;;;0.95;0.57;;;;;;;13.53;100.00;100122.31;5050361;28;20056;-60
2021/07/14 00:04:54;;;;;;;3.22;0.68;;;;;;;13.54;100.00;100123.06;5050820;28;20151;-60
2021/07/14 00:07:58;;;;;;;6.10;1.98;;;;;;;13.50;100.00;100117.69;5051325;28;20044;-60
2021/07/14 00:11:02;;;;;;;4.22;1.00;;;;;;;13.44;100.00;100108.47;5053709;28;20056;-59
2021/07/14 00:17:49;;;;;;;3.92;1.30;;;;;;;13.46;100.00;100111.53;5036027;28;20040;-59
2021/07/14 00:24:14;;;;;;;5.72;1.20;;;;;;;13.51;100.00;100101.69;5035984;28;20052;-59
2021/07/14 00:27:19;;;;;;;2.65;1.05;;;;;;;13.58;100.00;100104.03;5035752;28;20390;-60
2021/07/14 00:30:25;;;;;;;3.85;1.50;;;;;;;13.66;100.00;100103.13;5034802;28;20113;-59
2021/07/14 00:33:30;;;;;;;5.95;1.98;;;;;;;13.63;100.00;100108.94;5035304;28;20060;-59
2021/07/14 00:36:34;;;;;;;6.07;1.52;;;;;;;13.62;100.00;100107.44;5035557;28;20053;-60
2021/07/14 00:39:37;;;;;;;5.88;1.20;;;;;;;13.60;100.00;100099.50;5035262;28;20112;-59
2021/07/14 00:42:42;;;;;;;5.35;2.13;;;;;;;13.55;100.00;100105.03;5035045;28;20510;-60
2021/07/14 00:45:47;;;;;;;4.40;1.80;;;;;;;13.60;100.00;100116.28;5034749;28;20566;-59
2021/07/14 00:48:53;;;;;;;5.93;1.55;;;;;;;13.65;100.00;100121.19;5035040;28;20048;-59
2021/07/14 00:51:58;;;;;;;7.00;2.10;;;;;;;13.68;100.00;100128.63;5035124;28;20401;-60
2021/07/14 00:55:03;;;;;;;2.67;0.90;;;;;;;13.60;100.00;100127.47;5034006;28;20045;-58
2021/07/14 00:58:07;;;;;;;2.55;0.90;;;;;;;13.62;100.00;100133.34;5034986;28;20462;-60
2021/07/14 01:01:11;;;;;;;8.25;3.20;;;;;;;13.77;100.00;100136.09;5034841;28;20049;-59
2021/07/14 01:04:23;;;;;;;3.75;1.35;;;;;;;13.80;100.00;100139.94;5036017;28;20148;-59
2021/07/14 01:07:31;;;;;;;8.88;1.58;;;;;;;13.85;100.00;100142.81;5055054;28;20060;-60
2021/07/14 01:10:34;;;;;;;8.40;2.58;;;;;;;14.01;100.00;100149.88;5055112;28;20048;-60
2021/07/14 01:13:44;;;;;;;12.18;2.65;;;;;;;14.10;100.00;100144.09;5054984;28;20052;-60
2021/07/14 01:16:56;;;;;;;7.60;2.35;;;;;;;14.03;100.00;100142.53;5054942;28;20037;-59
2021/07/14 01:20:45;;;;;;;5.82;2.88;;;;;;;13.91;100.00;100142.88;5053474;28;20111;-60
2021/07/14 01:23:58;;;;;;;8.50;2.10;;;;;;;14.02;100.00;100143.00;5053946;28;20052;-59
2021/07/14 01:27:10;;;;;;;6.80;1.88;;;;;;;14.03;100.00;100150.94;5054163;28;20052;-60
2021/07/14 01:30:15;;;;;;;11.15;4.00;;;;;;;14.04;100.00;100157.28;5054425;28;20048;-59
2021/07/14 01:33:22;;;;;;;6.55;2.33;;;;;;;14.06;100.00;100157.53;5054603;28;20386;-59
2021/07/14 01:36:28;;;;;;;9.85;2.53;;;;;;;14.08;100.00;100149.41;5054436;28;20375;-60
2021/07/14 01:39:35;;;;;;;15.40;2.85;;;;;;;14.11;100.00;100157.63;5054060;28;20055;-59
2021/07/14 01:42:41;;;;;;;7.93;2.40;;;;;;;14.06;100.00;100151.94;5054043;28;20048;-60
2021/07/14 01:45:46;;;;;;;9.85;3.40;;;;;;;14.08;100.00;100155.03;5054296;28;20055;-60
2021/07/14 01:48:51;;;;;;;5.75;2.47;;;;;;;14.12;100.00;100150.75;5054201;28;20477;-60
2021/07/14 01:52:11;;;;;;;9.73;2.97;;;;;;;13.96;100.00;100147.78;5053897;28;20064;-60
2021/07/14 01:55:15;;;;;;;20.10;4.20;;;;;;;14.01;100.00;100147.06;5053702;28;20044;-60
2021/07/14 01:58:19;;;;;;;12.35;3.03;;;;;;;14.03;100.00;100156.53;5054002;28;20041;-60
2021/07/14 02:01:25;;;;;;;6.10;2.25;;;;;;;14.04;100.00;100154.47;5054157;28;20751;-56
2021/07/14 02:04:34;;;;;;;10.68;2.95;;;;;;;14.07;100.00;100150.69;5052368;28;20382;-56
2021/07/14 02:07:37;;;;;;;5.30;2.13;;;;;;;14.17;100.00;100157.66;5053422;28;20041;-56
2021/07/14 02:10:43;;;;;;;7.68;1.98;;;;;;;14.10;100.00;100158.88;5053413;28;20108;-56
2021/07/14 02:13:51;;;;;;;8.05;2.60;;;;;;;14.06;100.00;100157.53;5053601;28;20048;-56
2021/07/14 02:16:57;;;;;;;7.07;2.38;;;;;;;14.12;100.00;100164.00;5053480;28;20044;-56
2021/07/14 02:20:06;;;;;;;14.50;2.17;;;;;;;14.11;100.00;100154.06;5053609;28;20374;-56
2021/07/14 02:23:10;;;;;;;10.57;1.67;;;;;;;14.15;100.00;100155.38;5053301;28;20040;-56
2021/07/14 02:26:13;;;;;;;13.48;2.80;;;;;;;14.18;100.00;100160.00;5052702;28;20045;-56
2021/07/14 02:29:17;;;;;;;4.32;1.70;;;;;;;14.30;100.00;100144.09;5053165;28;20049;-56
2021/07/14 02:32:22;;;;;;;8.38;2.33;;;;;;;14.32;100.00;100135.97;5053111;28;20123;-56
2021/07/14 02:35:27;;;;;;;8.32;1.65;;;;;;;14.27;100.00;100139.47;5052899;28;20051;-56
2021/07/14 02:38:44;;;;;;;10.38;2.30;;;;;;;14.25;100.00;100136.38;5052902;28;20045;-56
2021/07/14 02:41:55;;;;;;;6.68;1.85;;;;;;;14.34;100.00;100134.22;5051987;28;20041;-56
2021/07/14 02:45:03;;;;;;;14.98;2.78;;;;;;;14.27;100.00;100133.84;5051833;28;20056;-56
2021/07/14 02:48:07;;;;;;;6.80;2.03;;;;;;;14.28;100.00;100136.16;5052765;28;20470;-56
2021/07/14 02:51:13;;;;;;;10.10;1.98;;;;;;;14.34;100.00;100133.44;5053278;28;20044;-56
2021/07/14 02:54:22;;;;;;;12.25;3.13;;;;;;;14.29;100.00;100140.50;5052992;28;20041;-56
2021/07/14 02:57:28;;;;;;;9.25;2.67;;;;;;;14.30;100.00;100135.69;5052827;28;20385;-56
2021/07/14 03:00:35;;;;;;;6.25;1.73;;;;;;;14.23;100.00;100138.88;5053002;28;20394;-56
2021/07/14 03:03:38;;;;;;;6.25;1.90;;;;;;;14.28;100.00;100143.78;5053015;28;20048;-56
2021/07/14 03:06:43;;;;;;;4.65;1.55;;;;;;;14.25;100.00;100158.81;5052218;28;20063;-56
2021/07/14 03:09:47;;;;;;;10.68;2.60;;;;;;;14.25;100.00;100153.94;5052669;28;20052;-56
2021/07/14 03:12:57;;;;;;;5.78;1.85;;;;;;;14.29;100.00;100150.97;5052243;28;20045;-56
2021/07/14 03:16:04;;;;;;;4.38;1.42;;;;;;;14.37;100.00;100154.88;5051710;28;20063;-56
2021/07/14 03:19:10;;;;;;;8.60;1.92;;;;;;;14.32;100.00;100150.75;5052498;28;20047;-56
2021/07/14 03:22:15;;;;;;;5.03;1.50;;;;;;;14.32;100.00;100147.16;5052485;28;20047;-56
2021/07/14 03:25:20;;;;;;;7.28;1.83;;;;;;;14.28;100.00;100152.97;5052828;28;20048;-56
2021/07/14 03:28:25;;;;;;;4.25;1.20;;;;;;;14.36;100.00;100142.88;5052661;28;20057;-56
2021/07/14 03:31:29;;;;;;;6.47;1.85;;;;;;;14.51;100.00;100144.81;5052447;28;20068;-56
2021/07/14 03:34:33;;;;;;;4.20;0.98;;;;;;;14.40;100.00;100151.09;5052486;28;20048;-56
2021/07/14 03:37:37;;;;;;;4.85;1.65;;;;;;;14.42;100.00;100146.50;5052545;28;20043;-56
2021/07/14 03:40:43;;;;;;;6.72;2.25;;;;;;;14.46;100.00;100140.69;5051692;28;20056;-56
2021/07/14 03:43:46;;;;;;;5.80;1.85;;;;;;;14.54;100.00;100155.78;5052919;28;20048;-56
2021/07/14 03:46:51;;;;;;;4.75;1.38;;;;;;;14.50;100.00;100146.84;5056299;28;20052;-56
2021/07/14 03:49:59;;;;;;;4.20;1.77;;;;;;;14.49;100.00;100155.75;5056587;28;20052;-60
2021/07/14 03:53:02;;;;;;;3.55;1.85;;;;;;;14.42;100.00;100146.50;5056376;28;20068;-60
2021/07/14 03:56:06;;;;;;;12.48;2.10;;;;;;;14.37;100.00;100155.66;5056046;28;20052;-60
2021/07/14 03:59:10;;;;;;;4.82;1.50;;;;;;;14.39;100.00;100149.53;5056420;28;20041;-60
2021/07/14 04:02:14;;;;;;;7.72;1.58;;;;;;;14.40;100.00;100160.25;5056474;28;20052;-61
2021/07/14 04:05:18;;;;;;;4.28;1.38;;;;;;;14.38;100.00;100147.97;5056191;28;20051;-60
2021/07/14 04:08:31;;;;;;;6.32;1.58;;;;;;;14.38;100.00;100133.97;5055430;28;20059;-56
2021/07/14 04:11:34;;;;;;;5.35;1.73;;;;;;;14.38;100.00;100133.97;5055662;28;20048;-56
2021/07/14 04:14:38;;;;;;;4.13;1.02;;;;;;;14.42;100.00;100134.53;5055149;28;20052;-56
2021/07/14 04:17:41;;;;;;;4.32;1.40;;;;;;;14.33;100.00;100143.88;5055709;28;20504;-56
2021/07/14 04:20:45;;;;;;;2.38;1.08;;;;;;;14.29;100.00;100139.75;5055701;28;20056;-56
2021/07/14 04:23:48;;;;;;;4.18;1.50;;;;;;;14.31;100.00;100145.66;5055474;28;20064;-56
2021/07/14 04:26:51;;;;;;;6.00;1.98;;;;;;;14.47;100.00;100153.44;5055247;28;20402;-56
2021/07/14 04:29:55;;;;;;;8.23;1.92;;;;;;;14.58;100.00;100147.16;5055511;28;20068;-56
2021/07/14 04:32:58;;;;;;;2.97;0.77;;;;;;;14.53;100.00;100147.91;5054795;28;20047;-56
2021/07/14 04:36:02;;;;;;;3.75;0.60;;;;;;;14.53;100.00;100145.84;5055478;28;20048;-56
2021/07/14 04:39:06;;;;;;;3.60;0.88;;;;;;;14.45;100.00;100144.75;5055799;28;20044;-56
2021/07/14 04:42:10;;;;;;;3.47;1.75;;;;;;;14.50;100.00;100141.25;5055385;28;20055;-56
2021/07/14 04:45:14;;;;;;;5.38;1.58;;;;;;;14.56;100.00;100149.69;5055515;28;20063;-56
2021/07/14 04:48:17;;;;;;;8.55;2.38;;;;;;;14.53;100.00;100154.25;5055356;28;20052;-56
2021/07/14 04:51:20;;;;;;;1.27;0.68;;;;;;;14.47;100.00;100156.22;5055311;28;20056;-56
2021/07/14 04:54:24;;;;;;;3.08;0.65;;;;;;;14.49;100.00;100173.31;5055020;28;20044;-56
2021/07/14 04:57:27;;;;;;;5.75;1.65;;;;;;;14.57;100.00;100168.81;5054270;28;20044;-56
2021/07/14 05:00:31;;;;;;;5.40;1.15;;;;;;;14.71;100.00;100173.53;5055073;28;20044;-56
2021/07/14 05:03:34;;;;;;;2.33;1.17;;;;;;;14.69;100.00;100173.25;5055335;28;20048;-56
2021/07/14 05:06:38;;;;;;;5.43;1.13;;;;;;;14.69;100.00;100176.06;5054860;28;20394;-56
2021/07/14 05:09:41;;;;;;;3.10;1.15;;;;;;;14.65;100.00;100181.13;5054844;28;20060;-56
2021/07/14 05:12:45;;;;;;;3.22;0.70;;;;;;;14.66;100.00;100187.50;5054850;28;20048;-56
2021/07/14 05:15:48;;;;;;;4.57;1.15;;;;;;;14.71;100.00;100181.16;5054979;28;20132;-56
2021/07/14 05:18:52;;;;;;;4.07;0.75;;;;;;;14.74;100.00;100183.75;5054759;28;20505;-56
2021/07/14 05:21:55;;;;;;;4.15;1.45;;;;;;;14.78;100.00;100189.13;5054781;28;20047;-56
2021/07/14 05:24:58;;;;;;;5.65;1.05;;;;;;;14.79;100.00;100185.81;5055008;28;20063;-56
2021/07/14 05:28:04;;;;;;;4.32;1.02;;;;;;;14.87;100.00;100181.34;5054154;28;20504;-56
2021/07/14 05:31:07;;;;;;;2.90;0.75;;;;;;;14.89;100.00;100190.00;5054161;28;20048;-56
2021/07/14 05:34:10;;;;;;;6.57;0.68;;;;;;;14.84;100.00;100185.13;5054588;28;20068;-56
2021/07/14 05:37:13;;;;;;;7.88;0.90;;;;;;;14.89;100.00;100184.41;5054538;28;20044;-57
2021/07/14 05:40:17;;;;;;;2.83;0.63;;;;;;;14.97;100.00;100173.50;5054238;28;20477;-57
2021/07/14 05:43:20;;;;;;;5.13;0.50;;;;;;;15.11;100.00;100170.56;5054278;28;20056;-56
2021/07/14 05:46:23;;;;;;;2.75;0.80;;;;;;;15.09;100.00;100178.69;5054052;28;20044;-57
2021/07/14 05:49:27;;;;;;;11.18;1.05;;;;;;;15.08;100.00;100179.97;5054078;28;20059;-57
2021/07/14 05:52:31;;;;;;;4.25;1.77;;;;;;;15.10;100.00;100188.66;5054058;28;20036;-57
2021/07/14 05:55:34;;;;;;;1.30;0.38;;;;;;;15.10;100.00;100182.25;5053779;28;20039;-56
2021/07/14 05:58:38;;;;;;;1.25;0.63;;;;;;;15.11;100.00;100190.19;5054119;28;20048;-57
2021/07/14 06:01:41;;;;;;;5.95;0.82;;;;;;;15.10;100.00;100191.44;5053996;28;20060;-57
2021/07/14 06:04:44;;;;;;;1.92;1.05;;;;;;;15.23;100.00;100193.06;5053762;28;20497;-57
2021/07/14 06:07:47;;;;;;;1.73;0.50;;;;;;;15.29;100.00;100191.84;5052769;28;20060;-57
2021/07/14 06:10:52;;;;;;;5.13;0.95;;;;;;;15.28;100.00;100187.50;5053696;28;20052;-57
2021/07/14 06:13:55;;;;;;;4.07;0.50;;;;;;;15.33;100.00;100183.19;5033091;28;20048;-57
2021/07/14 06:16:59;;;;;;;4.60;1.30;;;;;;;15.33;100.00;100200.03;5033758;28;20048;-57
2021/07/14 06:20:05;;;;;;;17.13;1.45;;;;;;;15.41;100.00;100195.50;5033674;28;20049;-57
2021/07/14 06:23:09;;;;;;;2.38;0.52;;;;;;;15.41;100.00;100195.50;5033473;28;20041;-57
2021/07/14 06:26:13;;;;;;;3.35;1.30;;;;;;;15.32;100.00;100190.06;5032994;28;20402;-57
2021/07/14 06:29:16;;;;;;;3.28;0.85;;;;;;;15.29;100.00;100188.28;5032849;28;20049;-57
2021/07/14 06:32:20;;;;;;;3.15;0.90;;;;;;;15.29;100.00;100191.84;5032604;28;20056;-57
2021/07/14 06:35:23;;;;;;;2.47;0.60;;;;;;;15.38;100.00;100202.88;5033221;28;20048;-57
2021/07/14 06:38:27;;;;;;;5.82;2.00;;;;;;;15.45;100.00;100207.28;5033073;28;20385;-57
2021/07/14 06:41:31;;;;;;;2.60;0.80;;;;;;;15.43;100.00;100198.56;5033103;28;20044;-57
2021/07/14 06:44:37;;;;;;;1.25;0.82;;;;;;;15.40;100.00;100196.78;5033399;28;20044;-57
2021/07/14 06:47:41;;;;;;;2.95;0.98;;;;;;;15.50;100.00;100203.75;5032807;28;20041;-57
2021/07/14 06:50:44;;;;;;;1.60;0.73;;;;;;;15.67;100.00;100196.19;5033267;28;20374;-57
2021/07/14 06:53:47;;;;;;;0.80;0.50;;;;;;;15.83;100.00;100199.06;5033076;28;20048;-57
2021/07/14 06:56:51;;;;;;;6.57;0.75;;;;;;;15.92;100.00;100196.06;5032954;28;20048;-57
2021/07/14 06:59:54;;;;;;;1.30;0.75;;;;;;;16.08;100.00;100197.41;5033100;28;20052;-57
2021/07/14 07:02:57;;;;;;;1.65;0.30;;;;;;;16.20;100.00;100193.34;5033166;28;20064;-57
2021/07/14 07:06:03;;;;;;;0.60;0.22;;;;;;;16.35;100.00;100193.91;5032882;28;20406;-57
2021/07/14 07:09:06;;;;;;;1.08;0.50;;;;;;;16.35;100.00;100201.59;5032840;28;20072;-57
2021/07/14 07:12:10;;;;;;;3.35;0.52;;;;;;;16.20;100.00;100198.22;5038638;28;20505;-56
2021/07/14 07:15:18;;;;;;;3.13;0.55;;;;;;;16.11;100.00;100201.25;5052690;28;20040;-57
2021/07/14 07:18:21;;;;;;;2.28;0.82;;;;;;;16.11;100.00;100196.41;5052215;28;20051;-57
2021/07/14 07:21:26;;;;;;;3.53;0.80;;;;;;;16.16;100.00;100192.81;5052654;28;20374;-57
2021/07/14 07:24:30;;;;;;;9.80;0.90;;;;;;;16.19;100.00;100196.69;5052361;28;20047;-57
2021/07/14 07:27:36;;;;;;;2.42;0.95;;;;;;;16.34;100.00;100200.81;5052307;28;20048;-57
2021/07/14 07:30:40;;;;;;;1.10;0.52;;;;;;;16.40;100.00;100200.81;5052571;28;20052;-57
2021/07/14 07:33:43;;;;;;;0.82;0.30;;;;;;;16.56;100.00;100203.72;5052400;28;20056;-57
2021/07/14 07:36:47;;;;;;;0.25;0.10;;;;;;;16.67;100.00;100200.91;5051604;28;20048;-57
2021/07/14 07:39:51;;;;;;;0.43;0.20;;;;;;;16.70;100.00;100195.56;5052029;28;20077;-57
2021/07/14 07:42:55;;;;;;;0.43;0.20;;;;;;;16.54;100.00;100195.03;5051778;28;20044;-57
2021/07/14 07:45:59;;;;;;;2.33;0.45;;;;;;;16.36;100.00;100203.09;5052224;28;20055;-57
2021/07/14 07:49:04;;;;;;;0.45;0.30;;;;;;;16.13;100.00;100205.09;5052165;28;20052;-57
2021/07/14 07:52:07;;;;;;;1.00;0.60;;;;;;;16.00;100.00;100201.97;5052016;28;20048;-57
2021/07/14 07:55:14;;;;;;;1.27;0.10;;;;;;;16.06;100.00;100205.56;5051599;28;20044;-57
2021/07/14 07:58:18;;;;;;;4.05;0.40;;;;;;;16.03;100.00;100206.56;5049925;28;20044;-57
2021/07/14 08:01:22;;;;;;;3.00;0.55;;;;;;;15.97;100.00;100197.34;5051443;28;20091;-57
2021/07/14 08:04:25;;;;;;;1.75;0.20;;;;;;;15.95;100.00;100199.91;5052050;28;20076;-57
2021/07/14 08:07:29;;;;;;;3.30;0.47;;;;;;;16.15;100.00;100202.53;5051643;28;20052;-57
2021/07/14 08:10:33;;;;;;;0.30;0.20;;;;;;;16.27;100.00;100206.91;5051848;28;20537;-57
2021/07/14 08:13:37;;;;;;;0.20;0.20;;;;;;;16.55;100.00;100215.44;5051761;28;20052;-57
2021/07/14 08:16:40;;;;;;;0.85;0.50;;;;;;;16.72;100.00;100215.50;5051603;28;20048;-57
2021/07/14 08:19:44;;;;;;;2.83;0.35;;;;;;;17.00;100.00;100216.28;5051742;28;20394;-57
2021/07/14 08:22:47;;;;;;;2.47;0.60;;;;;;;17.08;100.00;100208.88;5051909;28;20044;-57
2021/07/14 08:25:51;;;;;;;0.77;0.50;;;;;;;16.88;100.00;100218.31;5051591;28;20048;-57
2021/07/14 08:28:55;;;;;;;0.55;0.30;;;;;;;16.72;100.00;100207.06;5051136;28;20048;-56
2021/07/14 08:31:58;;;;;;;1.38;0.43;;;;;;;17.09;100.00;100207.56;5053907;28;20044;-56
2021/07/14 08:35:03;;;;;;;1.15;0.20;;;;;;;17.61;100.00;100211.38;5055606;28;20425;-56
2021/07/14 08:38:09;;;;;;;4.18;0.60;;;;;;;17.65;100.00;100206.25;5055495;28;20065;-56
2021/07/14 08:41:15;;;;;;;0.25;0.10;;;;;;;18.02;100.00;100206.66;5054888;28;20047;-56
2021/07/14 08:44:21;;;;;;;0.20;0.10;;;;;;;18.52;100.00;100214.88;5055377;28;20052;-56
2021/07/14 08:47:26;;;;;;;0.65;0.10;;;;;;;18.80;100.00;100212.66;5054879;28;20492;-56
2021/07/14 08:50:31;;;;;;;5.00;0.28;;;;;;;18.64;100.00;100207.13;5054833;28;20044;-57
2021/07/14 08:53:37;;;;;;;0.73;0.20;;;;;;;18.52;100.00;100209.25;5054914;28;20496;-57
2021/07/14 08:56:40;;;;;;;0.40;0.10;;;;;;;18.43;100.00;100205.97;5054614;28;20056;-57
2021/07/14 08:59:45;;;;;;;3.67;0.68;;;;;;;18.69;100.00;100195.81;5054969;28;20387;-57
2021/07/14 09:02:49;;;;;;;3.65;0.43;;;;;;;18.67;100.00;100191.97;5053667;28;20052;-56
2021/07/14 09:05:53;;;;;;;1.60;0.38;;;;;;;18.85;100.00;100188.50;5054540;28;20052;-57
2021/07/14 09:08:57;;;;;;;0.68;0.28;;;;;;;18.93;100.00;100193.06;5053919;28;20052;-56
2021/07/14 09:12:02;;;;;;;0.30;0.03;;;;;;;19.27;100.00;100182.25;5054630;28;20076;-60
2021/07/14 09:15:08;;;;;;;1.45;0.25;;;;;;;19.22;100.00;100185.88;5054536;28;20048;-61
2021/07/14 09:18:16;;;;;;;0.90;0.10;;;;;;;19.46;100.00;100183.13;5053647;28;20112;-61
2021/07/14 09:21:20;;;;;;;1.83;0.40;;;;;;;19.43;100.00;100189.81;5054270;28;20108;-60
2021/07/14 09:24:28;;;;;;;0.75;0.30;;;;;;;19.16;100.00;100193.66;5054450;28;20056;-60
2021/07/14 09:27:36;;;;;;;0.32;0.10;;;;;;;19.08;100.00;100198.31;5053971;28;20048;-61
2021/07/14 09:30:41;;;;;;;0.65;0.20;;;;;;;19.10;100.00;100195.00;5054349;28;20055;-61
2021/07/14 09:33:44;;;;;;;1.42;0.20;;;;;;;19.16;100.00;100188.00;5053767;28;20052;-61
2021/07/14 09:36:48;;;;;;;3.33;0.25;;;;;;;19.28;100.00;100186.59;5054171;28;20052;-60
2021/07/14 09:39:52;;;;;;;0.50;0.32;;;;;;;18.99;100.00;100184.56;5053886;28;20048;-56
2021/07/14 09:43:08;;;;;;;1.65;0.00;;;;;;;18.97;100.00;100184.31;5053911;28;20402;-56
2021/07/14 09:46:13;;;;;;;2.72;0.30;;;;;;;19.25;100.00;100179.16;5053690;28;20044;-56
2021/07/14 09:49:17;;;;;;;0.82;0.00;;;;;;;19.59;100.00;100180.41;5053984;28;20052;-56
2021/07/14 09:52:22;;;;;;;0.30;0.10;;;;;;;19.89;100.00;100174.66;5053672;28;20051;-56
2021/07/14 09:55:30;;;;;;;0.40;0.15;;;;;;;20.18;100.00;100182.25;5053626;28;20056;-56
2021/07/14 09:58:34;;;;;;;1.75;0.10;;;;;;;20.41;100.00;100179.94;5053584;28;20040;-56
2021/07/14 10:01:45;;;;;;;0.55;0.20;;;;;;;20.21;100.00;100195.38;5053872;28;20060;-56
2021/07/14 10:04:49;;;;;;;0.57;0.20;;;;;;;20.21;100.00;100195.38;5053576;28;20048;-56
2021/07/14 10:08:12;;;;;;;0.20;0.10;;;;;;;20.42;100.00;100197.69;5053435;28;20044;-60
2021/07/14 10:11:16;;;;;;;1.05;0.10;;;;;;;20.79;100.00;100198.38;5053364;28;20048;-61
2021/07/14 10:14:29;;;;;;;1.17;0.10;;;;;;;21.33;100.00;100194.47;5033179;28;20056;-60
2021/07/14 10:17:44;;;;;;;0.80;0.00;;;;;;;21.67;100.00;100189.69;5033020;28;20040;-61
2021/07/14 10:20:48;;;;;;;0.65;0.28;;;;;;;21.32;100.00;100204.25;5032767;28;20052;-60
2021/07/14 10:23:53;;;;;;;0.93;0.05;;;;;;;21.24;100.00;100197.72;5033558;28;20064;-60
2021/07/14 10:26:56;;;;;;;1.08;0.10;;;;;;;21.29;100.00;100202.53;5033182;28;20061;-60
2021/07/14 10:30:00;;;;;;;0.73;0.17;;;;;;;21.27;100.00;100202.31;5033675;28;20426;-60
2021/07/14 10:33:05;;;;;;;0.77;0.08;;;;;;;21.37;100.00;100200.56;5033370;28;20056;-61
2021/07/14 10:36:10;;;;;;;0.10;0.10;;;;;;;21.55;100.00;100199.72;5033357;28;20048;-60
2021/07/14 10:39:17;;;;;;;0.17;0.08;;;;;;;21.79;100.00;100191.00;5032741;28;20064;-60
2021/07/14 10:42:21;;;;;;;0.30;0.10;;;;;;;21.92;100.00;100188.19;5033312;28;20044;-60
2021/07/14 10:45:25;;;;;;;0.08;0.00;;;;;;;21.65;100.00;100189.47;5032754;28;20048;-60
2021/07/14 10:48:28;;;;;;;0.25;0.20;;;;;;;21.76;100.00;100192.09;5032736;28;20044;-60
2021/07/14 10:51:32;;;;;;;0.57;0.10;;;;;;;21.93;100.00;100195.41;5032992;28;20044;-60
2021/07/14 10:54:36;;;;;;;0.77;0.00;;;;;;;21.89;100.00;100200.63;5032444;28;20610;-60
2021/07/14 10:57:40;;;;;;;3.83;0.10;;;;;;;22.01;100.00;100206.84;5032639;28;20068;-60
2021/07/14 11:00:45;;;;;;;0.20;0.08;;;;;;;22.52;100.00;100214.50;5033022;28;20056;-61
2021/07/14 11:03:48;;;;;;;0.50;0.10;;;;;;;22.50;100.00;100205.75;5032905;28;20052;-60
2021/07/14 11:07:04;;;;;;;2.90;0.10;;;;;;;22.48;100.00;100208.41;5033050;28;20044;-60
2021/07/14 11:10:28;;;;;;;0.25;0.00;;;;;;;22.70;100.00;100207.16;5032515;28;20068;-58
2021/07/14 11:13:33;;;;;;;11.50;0.20;;;;;;;22.73;100.00;100210.97;5049482;28;20063;-58
2021/07/14 11:16:38;;;;;;;2.65;0.13;;;;;;;22.42;100.00;100204.91;5052338;28;20041;-57
2021/07/14 11:19:50;;;;;;;0.57;0.10;;;;;;;22.28;100.00;100202.66;5052209;28;20049;-56
2021/07/14 11:22:58;;;;;;;3.45;0.10;;;;;;;22.41;100.00;100220.44;5052145;28;20095;-56
2021/07/14 11:26:03;;;;;;;0.30;0.22;;;;;;;23.03;100.00;100208.44;5051898;28;20083;-56
2021/07/14 11:29:16;;;;;;;0.50;0.10;;;;;;;23.03;100.00;100226.25;5051879;28;20496;-57
2021/07/14 11:32:38;;;;;;;4.57;0.10;;;;;;;22.99;100.00;100216.56;5052309;28;20401;-57
2021/07/14 11:35:45;;;;;;;1.27;0.28;;;;;;;22.91;100.00;100224.25;5052196;28;20059;-57
2021/07/14 11:38:54;;;;;;;0.22;0.10;;;;;;;22.65;100.00;100225.09;5051230;28;20405;-57
2021/07/14 11:42:17;;;;;;;0.10;0.03;;;;;;;22.89;100.00;100221.94;5052508;28;20425;-57
2021/07/14 11:45:34;;;;;;;0.40;0.00;;;;;;;23.44;100.00;100214.16;5052056;28;20099;-57
2021/07/14 11:48:40;;;;;;;0.80;0.10;;;;;;;23.38;100.00;100222.06;5052287;28;20052;-58
2021/07/14 11:51:44;;;;;;;0.10;0.00;;;;;;;22.81;100.00;100223.16;5052353;28;20052;-58
2021/07/14 11:54:47;;;;;;;0.10;0.00;;;;;;;23.10;100.00;100228.41;5051958;28;20048;-58
2021/07/14 11:57:52;;;;;;;3.75;0.00;;;;;;;23.39;100.00;100229.25;5052582;28;20051;-58
2021/07/14 12:00:56;;;;;;;0.35;0.10;;;;;;;23.67;100.00;100237.06;5052685;28;20048;-58
2021/07/14 12:04:04;;;;;;;0.10;0.00;;;;;;;23.13;100.00;100230.13;5052791;28;20052;-58
2021/07/14 12:07:10;;;;;;;2.72;0.20;;;;;;;22.76;100.00;100224.09;5054978;28;20060;-58
2021/07/14 12:10:18;;;;;;;0.68;0.00;;;;;;;22.74;100.00;100232.41;5056864;28;20048;-58
2021/07/14 12:13:23;;;;;;;0.10;0.00;;;;;;;22.72;100.00;100230.09;5054905;28;20409;-57
2021/07/14 12:16:27;;;;;;;2.55;0.15;;;;;;;22.69;100.00;100244.63;5056158;28;20048;-57
2021/07/14 12:19:36;;;;;;;3.10;0.00;;;;;;;22.18;100.00;100238.47;5054841;28;20052;-58
2021/07/14 12:22:40;;;;;;;0.45;0.00;;;;;;;21.75;100.00;100253.72;5056282;28;20059;-54
2021/07/14 12:25:44;;;;;;;0.28;0.10;;;;;;;21.82;100.00;100246.63;5055817;28;20052;-57
2021/07/14 12:28:47;;;;;;;0.35;0.00;;;;;;;22.09;100.00;100231.16;5055734;28;20060;-57
2021/07/14 12:31:50;;;;;;;0.63;0.00;;;;;;;21.92;100.00;100239.22;5055138;28;20048;-57
2021/07/14 12:34:54;;;;;;;2.15;0.00;;;;;;;21.83;100.00;100239.66;5055450;28;20051;-57
2021/07/14 12:38:08;;;;;;;1.27;0.40;;;;;;;22.07;100.00;100242.28;5055698;28;20040;-56
2021/07/14 12:41:12;;;;;;;1.17;0.10;;;;;;;22.23;100.00;100234.75;5055619;28;20064;-60
2021/07/14 12:44:15;;;;;;;7.03;0.10;;;;;;;22.44;100.00;100233.53;5055818;28;20508;-54
2021/07/14 12:47:21;;;;;;;0.10;0.00;;;;;;;22.20;100.00;100244.38;5055790;28;20067;-54
2021/07/14 12:50:26;;;;;;;0.10;0.00;;;;;;;21.75;100.00;100250.88;5055137;28;20052;-54
2021/07/14 12:53:29;;;;;;;0.30;0.10;;;;;;;21.85;100.00;100245.59;5055746;28;20048;-54
2021/07/14 12:56:32;;;;;;;0.30;0.10;;;;;;;22.19;100.00;100249.28;5055588;28;20044;-53
2021/07/14 12:59:53;;;;;;;1.05;0.30;;;;;;;22.46;100.00;100242.25;5055327;28;20060;-55
2021/07/14 13:03:02;;;;;;;9.00;1.52;;;;;;;22.78;100.00;100258.38;5055505;28;20052;-53
2021/07/14 13:06:07;;;;;;;0.82;0.15;;;;;;;22.92;100.00;100254.16;5055328;28;20103;-55
2021/07/14 13:09:12;;;;;;;0.10;0.00;;;;;;;22.94;100.00;100252.28;5055339;28;20512;-53
2021/07/14 13:12:16;;;;;;;0.30;0.10;;;;;;;23.37;100.00;100248.22;5055310;28;20060;-54
2021/07/14 13:15:25;;;;;;;0.40;0.00;;;;;;;23.42;100.00;100247.28;5055443;28;20044;-53
2021/07/14 13:18:40;;;;;;;0.40;0.00;;;;;;;22.94;100.00;100257.22;5054524;28;20052;-52
2021/07/14 13:21:45;;;;;;;0.73;0.00;;;;;;;22.71;100.00;100245.59;5055194;28;20056;-50
2021/07/14 13:25:00;;;;;;;0.93;0.10;;;;;;;22.76;100.00;100246.81;5054709;28;20078;-56
2021/07/14 13:28:21;;;;;;;0.10;0.00;;;;;;;23.08;100.00;100267.22;5054809;28;20052;-57
2021/07/14 13:31:29;;;;;;;3.17;0.57;;;;;;;23.31;100.00;100262.50;5053376;28;20052;-57
2021/07/14 13:34:38;;;;;;;0.73;0.10;;;;;;;23.37;100.00;100263.16;5054858;28;20048;-56
2021/07/14 13:37:41;;;;;;;0.10;0.00;;;;;;;23.42;100.00;100255.81;5054935;28;20052;-57
2021/07/14 13:40:44;;;;;;;0.98;0.20;;;;;;;23.31;100.00;100265.34;5054708;28;20040;-57
2021/07/14 13:43:59;;;;;;;0.17;0.10;;;;;;;23.73;100.00;100257.59;5054435;28;20096;-57
2021/07/14 13:47:04;;;;;;;1.27;0.25;;;;;;;23.95;100.00;100269.13;5053126;28;20393;-57
2021/07/14 13:50:08;;;;;;;0.55;0.00;;;;;;;23.64;100.00;100261.69;5054116;28;20051;-57
2021/07/14 13:53:15;;;;;;;0.50;0.30;;;;;;;23.60;100.00;100260.53;5054424;28;20048;-56
2021/07/14 13:56:28;;;;;;;0.80;0.20;;;;;;;23.78;100.00;100263.13;5054425;28;20071;-56
2021/07/14 13:59:37;;;;;;;0.15;0.00;;;;;;;23.88;100.00;100246.31;5054869;28;20048;-56
2021/07/14 14:02:41;;;;;;;3.72;0.57;;;;;;;23.69;100.00;100252.25;5052139;28;20043;-56
2021/07/14 14:05:44;;;;;;;0.25;0.10;;;;;;;23.06;100.00;100255.66;5054000;28;20060;-56
2021/07/14 14:08:54;;;;;;;3.30;0.05;;;;;;;23.04;100.00;100255.44;5054263;28;20067;-55
2021/07/14 14:11:59;;;;;;;1.48;0.30;;;;;;;23.07;100.00;100254.31;5053179;28;20047;-55
2021/07/14 14:15:23;;;;;;;0.80;0.10;;;;;;;22.98;100.00;100257.63;5054269;28;20048;-55
2021/07/14 14:18:27;;;;;;;0.75;0.03;;;;;;;23.63;100.00;100251.63;5054135;28;20048;-55
2021/07/14 14:21:30;;;;;;;0.63;0.20;;;;;;;23.93;100.00;100243.31;5054087;28;20504;-55